sensor_id;sensor_type;location;lat;lon;timestamp;pressure;altitude;pressure_sealevel;temperature;humidity
74327;BME280;62745;51.060;13.786;2023-06-22T00:01:49;100441.81;;;21.34;81.00
74327;BME280;62745;51.060;13.786;2023-06-22T00:04:14;100437.09;;;21.24;80.08
74327;BME280;62745;51.060;13.786;2023-06-22T00:06:40;100441.25;;;21.10;81.07
74327;BME280;62745;51.060;13.786;2023-06-22T00:09:05;100457.69;;;21.20;81.36
74327;BME280;62745;51.060;13.786;2023-06-22T00:11:32;100455.25;;;20.97;81.92
74327;BME280;62745;51.060;13.786;2023-06-22T00:13:58;100454.22;;;21.25;81.87
74327;BME280;62745;51.060;13.786;2023-06-22T00:16:23;100458.69;;;20.65;84.37
74327;BME280;62745;51.060;13.786;2023-06-22T00:18:49;100462.81;;;20.68;85.28
74327;BME280;62745;51.060;13.786;2023-06-22T00:21:14;100465.63;;;20.78;83.95
74327;BME280;62745;51.060;13.786;2023-06-22T00:23:39;100458.03;;;20.53;85.20
74327;BME280;62745;51.060;13.786;2023-06-22T00:26:04;100468.66;;;20.82;84.19
74327;BME280;62745;51.060;13.786;2023-06-22T00:28:30;100474.00;;;20.98;83.33
74327;BME280;62745;51.060;13.786;2023-06-22T00:30:55;100478.22;;;20.62;82.91
74327;BME280;62745;51.060;13.786;2023-06-22T00:33:20;100480.44;;;20.27;85.37
74327;BME280;62745;51.060;13.786;2023-06-22T00:35:46;100478.88;;;20.14;86.55
74327;BME280;62745;51.060;13.786;2023-06-22T00:38:11;100478.28;;;20.29;86.81
74327;BME280;62745;51.060;13.786;2023-06-22T00:40:36;100478.97;;;20.58;84.96
74327;BME280;62745;51.060;13.786;2023-06-22T00:43:02;100472.72;;;20.79;83.18
74327;BME280;62745;51.060;13.786;2023-06-22T00:45:27;100483.13;;;20.87;82.80
74327;BME280;62745;51.060;13.786;2023-06-22T00:47:55;100481.50;;;20.86;82.24
74327;BME280;62745;51.060;13.786;2023-06-22T00:50:24;100487.06;;;20.53;84.10
74327;BME280;62745;51.060;13.786;2023-06-22T00:52:55;100476.66;;;20.28;85.09
74327;BME280;62745;51.060;13.786;2023-06-22T00:55:22;100470.94;;;20.07;87.51
74327;BME280;62745;51.060;13.786;2023-06-22T00:57:48;100473.34;;;19.87;88.76
74327;BME280;62745;51.060;13.786;2023-06-22T01:00:15;100476.81;;;19.66;90.57
74327;BME280;62745;51.060;13.786;2023-06-22T01:02:44;100477.09;;;19.52;91.73
74327;BME280;62745;51.060;13.786;2023-06-22T01:05:18;100467.22;;;19.46;92.18
74327;BME280;62745;51.060;13.786;2023-06-22T01:13:14;100476.13;;;19.13;93.71
74327;BME280;62745;51.060;13.786;2023-06-22T01:15:49;100474.16;;;19.09;92.97
74327;BME280;62745;51.060;13.786;2023-06-22T01:18:18;100474.25;;;19.14;93.51
74327;BME280;62745;51.060;13.786;2023-06-22T01:20:45;100467.41;;;19.40;92.55
74327;BME280;62745;51.060;13.786;2023-06-22T01:23:27;100469.66;;;19.31;93.00
74327;BME280;62745;51.060;13.786;2023-06-22T01:26:13;100477.38;;;19.22;93.18
74327;BME280;62745;51.060;13.786;2023-06-22T01:28:46;100474.47;;;19.12;93.44
74327;BME280;62745;51.060;13.786;2023-06-22T01:31:15;100464.78;;;19.00;94.84
74327;BME280;62745;51.060;13.786;2023-06-22T01:33:43;100473.63;;;18.95;95.11
74327;BME280;62745;51.060;13.786;2023-06-22T01:36:09;100480.91;;;18.94;95.14
74327;BME280;62745;51.060;13.786;2023-06-22T01:38:36;100469.75;;;18.91;95.19
74327;BME280;62745;51.060;13.786;2023-06-22T01:41:02;100465.97;;;18.92;95.55
74327;BME280;62745;51.060;13.786;2023-06-22T01:43:28;100473.38;;;18.97;95.10
74327;BME280;62745;51.060;13.786;2023-06-22T01:45:55;100467.63;;;18.93;96.04
74327;BME280;62745;51.060;13.786;2023-06-22T01:48:21;100473.88;;;18.93;95.92
74327;BME280;62745;51.060;13.786;2023-06-22T01:50:47;100476.56;;;18.93;96.04
74327;BME280;62745;51.060;13.786;2023-06-22T01:53:12;100469.50;;;18.92;96.54
74327;BME280;62745;51.060;13.786;2023-06-22T01:55:37;100471.16;;;18.93;96.17
74327;BME280;62745;51.060;13.786;2023-06-22T01:58:03;100470.00;;;18.89;96.84
74327;BME280;62745;51.060;13.786;2023-06-22T02:00:31;100473.44;;;18.85;97.68
74327;BME280;62745;51.060;13.786;2023-06-22T02:03:03;100477.34;;;18.77;98.21
74327;BME280;62745;51.060;13.786;2023-06-22T02:05:38;100474.63;;;18.77;99.63
74327;BME280;62745;51.060;13.786;2023-06-22T02:08:13;100469.53;;;18.81;99.42
74327;BME280;62745;51.060;13.786;2023-06-22T02:10:43;100470.16;;;18.83;98.89
74327;BME280;62745;51.060;13.786;2023-06-22T02:13:10;100469.19;;;18.89;99.38
74327;BME280;62745;51.060;13.786;2023-06-22T02:15:36;100461.16;;;18.94;97.29
74327;BME280;62745;51.060;13.786;2023-06-22T02:18:02;100462.38;;;18.86;95.91
74327;BME280;62745;51.060;13.786;2023-06-22T02:20:27;100461.66;;;18.79;97.57
74327;BME280;62745;51.060;13.786;2023-06-22T02:22:53;100452.03;;;18.83;97.34
74327;BME280;62745;51.060;13.786;2023-06-22T02:25:18;100448.13;;;18.79;97.57
74327;BME280;62745;51.060;13.786;2023-06-22T02:27:44;100453.13;;;18.71;98.01
74327;BME280;62745;51.060;13.786;2023-06-22T02:30:11;100457.72;;;18.70;98.87
74327;BME280;62745;51.060;13.786;2023-06-22T02:32:37;100466.31;;;18.67;98.83
74327;BME280;62745;51.060;13.786;2023-06-22T02:35:02;100468.44;;;18.65;98.55
74327;BME280;62745;51.060;13.786;2023-06-22T02:37:32;100467.97;;;18.68;98.95
74327;BME280;62745;51.060;13.786;2023-06-22T02:39:57;100465.34;;;18.61;98.95
74327;BME280;62745;51.060;13.786;2023-06-22T02:42:22;100476.66;;;18.58;99.14
74327;BME280;62745;51.060;13.786;2023-06-22T02:44:48;100475.63;;;18.48;99.46
74327;BME280;62745;51.060;13.786;2023-06-22T02:47:13;100487.97;;;18.44;98.57
74327;BME280;62745;51.060;13.786;2023-06-22T02:49:38;100493.75;;;18.36;99.00
74327;BME280;62745;51.060;13.786;2023-06-22T02:52:04;100495.41;;;18.37;99.59
74327;BME280;62745;51.060;13.786;2023-06-22T02:54:29;100493.38;;;18.44;99.64
74327;BME280;62745;51.060;13.786;2023-06-22T02:56:54;100495.75;;;18.40;99.84
74327;BME280;62745;51.060;13.786;2023-06-22T02:59:19;100494.69;;;18.41;99.28
74327;BME280;62745;51.060;13.786;2023-06-22T03:01:49;100481.06;;;18.48;99.08
74327;BME280;62745;51.060;13.786;2023-06-22T03:04:15;100482.91;;;18.47;99.60
74327;BME280;62745;51.060;13.786;2023-06-22T03:06:40;100469.53;;;18.41;98.89
74327;BME280;62745;51.060;13.786;2023-06-22T03:09:05;100482.69;;;18.37;99.38
74327;BME280;62745;51.060;13.786;2023-06-22T03:11:31;100487.63;;;18.40;99.49
74327;BME280;62745;51.060;13.786;2023-06-22T03:13:57;100492.91;;;18.47;99.67
74327;BME280;62745;51.060;13.786;2023-06-22T03:16:23;100487.06;;;18.38;100.00
74327;BME280;62745;51.060;13.786;2023-06-22T03:18:48;100479.28;;;18.42;100.00
74327;BME280;62745;51.060;13.786;2023-06-22T03:21:13;100477.16;;;18.44;99.94
74327;BME280;62745;51.060;13.786;2023-06-22T03:23:40;100464.22;;;18.46;99.55
74327;BME280;62745;51.060;13.786;2023-06-22T03:26:06;100463.88;;;18.42;99.97
74327;BME280;62745;51.060;13.786;2023-06-22T03:28:31;100461.63;;;18.51;99.20
74327;BME280;62745;51.060;13.786;2023-06-22T03:30:57;100443.50;;;18.51;98.88
74327;BME280;62745;51.060;13.786;2023-06-22T03:33:23;100442.06;;;18.72;97.86
74327;BME280;62745;51.060;13.786;2023-06-22T03:35:48;100440.91;;;18.68;96.21
74327;BME280;62745;51.060;13.786;2023-06-22T03:38:14;100439.25;;;18.55;97.96
74327;BME280;62745;51.060;13.786;2023-06-22T03:40:39;100459.75;;;18.51;98.78
74327;BME280;62745;51.060;13.786;2023-06-22T03:43:04;100457.97;;;18.45;99.60
74327;BME280;62745;51.060;13.786;2023-06-22T03:45:29;100450.91;;;18.44;99.73
74327;BME280;62745;51.060;13.786;2023-06-22T03:47:55;100461.25;;;18.47;99.92
74327;BME280;62745;51.060;13.786;2023-06-22T03:50:20;100458.78;;;18.46;99.71
74327;BME280;62745;51.060;13.786;2023-06-22T03:52:46;100462.69;;;18.50;99.54
74327;BME280;62745;51.060;13.786;2023-06-22T03:55:12;100465.59;;;18.60;98.92
74327;BME280;62745;51.060;13.786;2023-06-22T03:57:37;100456.16;;;18.62;99.05
74327;BME280;62745;51.060;13.786;2023-06-22T04:00:02;100459.78;;;18.80;97.64
74327;BME280;62745;51.060;13.786;2023-06-22T04:02:31;100456.50;;;18.78;97.40
74327;BME280;62745;51.060;13.786;2023-06-22T04:04:56;100460.59;;;18.80;97.17
74327;BME280;62745;51.060;13.786;2023-06-22T04:07:21;100472.38;;;18.86;97.03
74327;BME280;62745;51.060;13.786;2023-06-22T04:09:47;100467.09;;;18.79;97.53
74327;BME280;62745;51.060;13.786;2023-06-22T04:12:12;100469.69;;;18.74;97.81
74327;BME280;62745;51.060;13.786;2023-06-22T04:14:37;100476.66;;;18.70;98.30
74327;BME280;62745;51.060;13.786;2023-06-22T04:17:03;100484.53;;;18.72;98.45
74327;BME280;62745;51.060;13.786;2023-06-22T04:19:28;100486.28;;;18.78;98.15
74327;BME280;62745;51.060;13.786;2023-06-22T04:21:53;100485.78;;;18.81;98.33
74327;BME280;62745;51.060;13.786;2023-06-22T04:24:18;100485.34;;;18.84;98.10
74327;BME280;62745;51.060;13.786;2023-06-22T04:26:44;100481.56;;;18.85;98.79
74327;BME280;62745;51.060;13.786;2023-06-22T04:29:11;100487.66;;;18.92;98.38
74327;BME280;62745;51.060;13.786;2023-06-22T04:31:36;100483.63;;;18.94;98.49
74327;BME280;62745;51.060;13.786;2023-06-22T04:34:02;100480.78;;;19.01;98.20
74327;BME280;62745;51.060;13.786;2023-06-22T04:36:35;100481.13;;;19.05;98.85
74327;BME280;62745;51.060;13.786;2023-06-22T04:39:04;100489.34;;;19.10;98.32
74327;BME280;62745;51.060;13.786;2023-06-22T04:41:29;100498.16;;;19.17;97.57
74327;BME280;62745;51.060;13.786;2023-06-22T04:43:55;100494.72;;;19.21;97.25
74327;BME280;62745;51.060;13.786;2023-06-22T04:46:24;100495.13;;;19.30;96.60
74327;BME280;62745;51.060;13.786;2023-06-22T04:48:50;100500.72;;;19.40;97.12
74327;BME280;62745;51.060;13.786;2023-06-22T04:51:15;100510.59;;;19.46;95.58
74327;BME280;62745;51.060;13.786;2023-06-22T04:53:40;100510.34;;;19.48;95.74
74327;BME280;62745;51.060;13.786;2023-06-22T04:56:06;100513.25;;;19.58;95.45
74327;BME280;62745;51.060;13.786;2023-06-22T04:58:31;100514.34;;;19.57;95.98
74327;BME280;62745;51.060;13.786;2023-06-22T05:00:57;100531.34;;;19.69;96.15
74327;BME280;62745;51.060;13.786;2023-06-22T05:03:25;100540.97;;;19.77;95.43
74327;BME280;62745;51.060;13.786;2023-06-22T05:05:52;100541.72;;;19.89;94.66
74327;BME280;62745;51.060;13.786;2023-06-22T05:08:17;100542.72;;;20.00;94.04
74327;BME280;62745;51.060;13.786;2023-06-22T05:10:42;100533.97;;;19.98;93.61
74327;BME280;62745;51.060;13.786;2023-06-22T05:13:08;100551.81;;;20.10;93.08
74327;BME280;62745;51.060;13.786;2023-06-22T05:15:33;100563.56;;;20.16;92.13
74327;BME280;62745;51.060;13.786;2023-06-22T05:18:02;100566.19;;;20.28;91.30
74327;BME280;62745;51.060;13.786;2023-06-22T05:20:30;100576.47;;;20.42;90.21
74327;BME280;62745;51.060;13.786;2023-06-22T05:22:56;100573.00;;;20.47;90.00
74327;BME280;62745;51.060;13.786;2023-06-22T05:25:21;100571.84;;;20.60;89.29
74327;BME280;62745;51.060;13.786;2023-06-22T05:27:46;100564.91;;;20.69;88.71
74327;BME280;62745;51.060;13.786;2023-06-22T05:30:11;100563.06;;;20.75;88.47
74327;BME280;62745;51.060;13.786;2023-06-22T05:32:37;100564.72;;;20.76;88.43
74327;BME280;62745;51.060;13.786;2023-06-22T05:35:03;100570.84;;;20.88;87.96
74327;BME280;62745;51.060;13.786;2023-06-22T05:37:29;100564.97;;;20.96;87.18
74327;BME280;62745;51.060;13.786;2023-06-22T05:39:54;100559.38;;;21.02;86.68
74327;BME280;62745;51.060;13.786;2023-06-22T05:42:20;100542.25;;;21.02;86.73
74327;BME280;62745;51.060;13.786;2023-06-22T05:44:45;100534.72;;;21.09;85.93
74327;BME280;62745;51.060;13.786;2023-06-22T05:47:12;100537.56;;;21.19;85.78
74327;BME280;62745;51.060;13.786;2023-06-22T05:49:38;100535.91;;;21.18;86.22
74327;BME280;62745;51.060;13.786;2023-06-22T05:52:03;100549.31;;;21.25;85.38
74327;BME280;62745;51.060;13.786;2023-06-22T05:54:28;100547.28;;;21.37;85.29
74327;BME280;62745;51.060;13.786;2023-06-22T05:56:54;100540.00;;;21.43;84.81
74327;BME280;62745;51.060;13.786;2023-06-22T05:59:19;100544.97;;;21.51;83.58
74327;BME280;62745;51.060;13.786;2023-06-22T06:01:44;100539.91;;;21.65;83.03
74327;BME280;62745;51.060;13.786;2023-06-22T06:04:11;100529.69;;;21.77;82.32
74327;BME280;62745;51.060;13.786;2023-06-22T06:06:36;100526.44;;;21.80;81.10
74327;BME280;62745;51.060;13.786;2023-06-22T06:09:05;100523.00;;;21.89;80.75
74327;BME280;62745;51.060;13.786;2023-06-22T06:11:32;100522.31;;;22.04;80.39
74327;BME280;62745;51.060;13.786;2023-06-22T06:13:57;100522.91;;;22.11;80.02
74327;BME280;62745;51.060;13.786;2023-06-22T06:16:23;100516.19;;;22.19;79.40
74327;BME280;62745;51.060;13.786;2023-06-22T06:18:48;100511.38;;;22.36;78.43
74327;BME280;62745;51.060;13.786;2023-06-22T06:21:15;100511.78;;;22.65;77.92
74327;BME280;62745;51.060;13.786;2023-06-22T06:23:41;100501.53;;;22.83;76.52
74327;BME280;62745;51.060;13.786;2023-06-22T06:26:07;100486.91;;;23.04;75.83
74327;BME280;62745;51.060;13.786;2023-06-22T06:28:32;100481.50;;;23.34;74.98
74327;BME280;62745;51.060;13.786;2023-06-22T06:30:58;100459.72;;;23.55;73.73
74327;BME280;62745;51.060;13.786;2023-06-22T06:33:24;100418.00;;;23.69;73.95
74327;BME280;62745;51.060;13.786;2023-06-22T06:35:49;100401.91;;;23.73;73.93
74327;BME280;62745;51.060;13.786;2023-06-22T06:38:14;100404.88;;;23.87;73.50
74327;BME280;62745;51.060;13.786;2023-06-22T06:40:40;100417.72;;;23.86;73.11
74327;BME280;62745;51.060;13.786;2023-06-22T06:43:05;100427.50;;;23.92;72.60
74327;BME280;62745;51.060;13.786;2023-06-22T06:45:31;100433.50;;;23.94;72.52
74327;BME280;62745;51.060;13.786;2023-06-22T06:47:58;100437.31;;;23.98;72.32
74327;BME280;62745;51.060;13.786;2023-06-22T06:50:23;100426.09;;;24.00;72.68
74327;BME280;62745;51.060;13.786;2023-06-22T06:52:48;100418.50;;;23.82;72.71
74327;BME280;62745;51.060;13.786;2023-06-22T06:55:15;100406.81;;;23.71;73.42
74327;BME280;62745;51.060;13.786;2023-06-22T06:57:41;100404.38;;;23.69;73.19
74327;BME280;62745;51.060;13.786;2023-06-22T07:00:09;100405.97;;;23.81;72.49
74327;BME280;62745;51.060;13.786;2023-06-22T07:02:38;100425.34;;;23.89;72.76
74327;BME280;62745;51.060;13.786;2023-06-22T07:05:05;100425.59;;;24.03;72.00
74327;BME280;62745;51.060;13.786;2023-06-22T07:07:31;100420.34;;;24.22;71.47
74327;BME280;62745;51.060;13.786;2023-06-22T07:09:56;100425.50;;;24.39;71.12
74327;BME280;62745;51.060;13.786;2023-06-22T07:12:21;100429.78;;;24.55;69.01
74327;BME280;62745;51.060;13.786;2023-06-22T07:14:47;100430.25;;;24.72;69.32
74327;BME280;62745;51.060;13.786;2023-06-22T07:17:12;100433.72;;;24.83;68.47
74327;BME280;62745;51.060;13.786;2023-06-22T07:19:37;100434.44;;;24.99;67.16
74327;BME280;62745;51.060;13.786;2023-06-22T07:22:03;100433.59;;;25.08;67.20
74327;BME280;62745;51.060;13.786;2023-06-22T07:24:28;100426.69;;;25.16;66.67
74327;BME280;62745;51.060;13.786;2023-06-22T07:26:53;100428.19;;;25.37;66.35
74327;BME280;62745;51.060;13.786;2023-06-22T07:29:20;100419.53;;;25.59;66.84
74327;BME280;62745;51.060;13.786;2023-06-22T07:31:47;100421.13;;;25.94;66.03
74327;BME280;62745;51.060;13.786;2023-06-22T07:34:13;100421.59;;;26.25;63.88
74327;BME280;62745;51.060;13.786;2023-06-22T07:36:38;100424.22;;;26.35;62.39
74327;BME280;62745;51.060;13.786;2023-06-22T07:39:03;100411.31;;;26.41;62.12
74327;BME280;62745;51.060;13.786;2023-06-22T07:41:29;100419.75;;;26.45;61.67
74327;BME280;62745;51.060;13.786;2023-06-22T07:43:54;100420.19;;;26.52;61.49
74327;BME280;62745;51.060;13.786;2023-06-22T07:46:20;100417.25;;;26.86;61.78
74327;BME280;62745;51.060;13.786;2023-06-22T07:48:45;100417.06;;;27.01;60.25
74327;BME280;62745;51.060;13.786;2023-06-22T07:51:11;100416.19;;;27.06;60.10
74327;BME280;62745;51.060;13.786;2023-06-22T07:53:38;100423.47;;;27.29;59.02
74327;BME280;62745;51.060;13.786;2023-06-22T07:56:03;100420.22;;;27.27;59.29
74327;BME280;62745;51.060;13.786;2023-06-22T07:58:32;100421.81;;;27.47;59.13
74327;BME280;62745;51.060;13.786;2023-06-22T08:00:57;100425.09;;;27.63;59.39
74327;BME280;62745;51.060;13.786;2023-06-22T08:03:22;100413.19;;;27.72;59.34
74327;BME280;62745;51.060;13.786;2023-06-22T08:05:47;100407.19;;;27.84;57.59
74327;BME280;62745;51.060;13.786;2023-06-22T08:08:13;100407.69;;;27.86;57.09
74327;BME280;62745;51.060;13.786;2023-06-22T08:10:39;100402.69;;;27.88;55.25
74327;BME280;62745;51.060;13.786;2023-06-22T08:13:06;100400.38;;;28.09;55.09
74327;BME280;62745;51.060;13.786;2023-06-22T08:15:31;100398.38;;;28.28;55.49
74327;BME280;62745;51.060;13.786;2023-06-22T08:17:56;100401.72;;;28.39;53.59
74327;BME280;62745;51.060;13.786;2023-06-22T08:20:22;100410.44;;;28.55;53.58
74327;BME280;62745;51.060;13.786;2023-06-22T08:22:48;100399.22;;;28.65;52.46
74327;BME280;62745;51.060;13.786;2023-06-22T08:25:13;100398.63;;;28.54;52.77
74327;BME280;62745;51.060;13.786;2023-06-22T08:27:38;100393.34;;;28.58;53.25
74327;BME280;62745;51.060;13.786;2023-06-22T08:30:05;100388.19;;;28.29;52.52
74327;BME280;62745;51.060;13.786;2023-06-22T08:32:31;100397.94;;;28.49;53.24
74327;BME280;62745;51.060;13.786;2023-06-22T08:34:57;100394.75;;;28.55;52.00
74327;BME280;62745;51.060;13.786;2023-06-22T08:37:23;100386.28;;;28.65;52.23
74327;BME280;62745;51.060;13.786;2023-06-22T08:39:59;100387.03;;;28.57;52.07
74327;BME280;62745;51.060;13.786;2023-06-22T08:42:26;100387.78;;;28.71;51.80
74327;BME280;62745;51.060;13.786;2023-06-22T08:44:51;100382.44;;;28.66;51.37
74327;BME280;62745;51.060;13.786;2023-06-22T08:47:16;100395.13;;;28.76;50.30
74327;BME280;62745;51.060;13.786;2023-06-22T08:49:42;100388.56;;;28.86;49.90
74327;BME280;62745;51.060;13.786;2023-06-22T08:52:07;100390.00;;;28.97;50.66
74327;BME280;62745;51.060;13.786;2023-06-22T08:54:33;100384.31;;;29.16;50.21
74327;BME280;62745;51.060;13.786;2023-06-22T08:57:00;100384.28;;;29.38;49.79
74327;BME280;62745;51.060;13.786;2023-06-22T08:59:25;100382.88;;;29.41;48.49
74327;BME280;62745;51.060;13.786;2023-06-22T09:01:50;100382.47;;;29.56;47.35
74327;BME280;62745;51.060;13.786;2023-06-22T09:04:16;100376.25;;;29.42;46.78
74327;BME280;62745;51.060;13.786;2023-06-22T09:06:41;100378.50;;;29.40;47.62
74327;BME280;62745;51.060;13.786;2023-06-22T09:09:11;100372.00;;;29.58;45.21
74327;BME280;62745;51.060;13.786;2023-06-22T09:11:37;100366.19;;;29.68;46.13
74327;BME280;62745;51.060;13.786;2023-06-22T09:14:02;100375.66;;;29.84;45.51
74327;BME280;62745;51.060;13.786;2023-06-22T09:16:28;100368.53;;;29.52;45.95
74327;BME280;62745;51.060;13.786;2023-06-22T09:18:54;100365.56;;;29.71;44.85
74327;BME280;62745;51.060;13.786;2023-06-22T09:21:19;100365.13;;;29.86;44.86
74327;BME280;62745;51.060;13.786;2023-06-22T09:23:44;100352.88;;;30.01;45.08
74327;BME280;62745;51.060;13.786;2023-06-22T09:26:12;100358.13;;;30.11;45.12
74327;BME280;62745;51.060;13.786;2023-06-22T09:28:37;100368.03;;;30.12;43.83
74327;BME280;62745;51.060;13.786;2023-06-22T09:31:02;100348.56;;;30.17;44.59
74327;BME280;62745;51.060;13.786;2023-06-22T09:33:28;100348.28;;;30.36;44.96
74327;BME280;62745;51.060;13.786;2023-06-22T09:35:53;100355.16;;;30.65;43.77
74327;BME280;62745;51.060;13.786;2023-06-22T09:38:18;100342.44;;;30.38;43.49
74327;BME280;62745;51.060;13.786;2023-06-22T09:40:43;100340.19;;;30.31;43.92
74327;BME280;62745;51.060;13.786;2023-06-22T09:43:09;100338.41;;;30.52;43.58
74327;BME280;62745;51.060;13.786;2023-06-22T09:45:34;100344.06;;;30.56;44.16
74327;BME280;62745;51.060;13.786;2023-06-22T09:47:59;100341.19;;;30.96;43.12
74327;BME280;62745;51.060;13.786;2023-06-22T09:50:25;100340.69;;;31.28;41.96
74327;BME280;62745;51.060;13.786;2023-06-22T09:52:50;100331.94;;;31.09;42.28
74327;BME280;62745;51.060;13.786;2023-06-22T09:55:19;100325.38;;;31.39;41.87
74327;BME280;62745;51.060;13.786;2023-06-22T09:57:44;100331.91;;;31.35;42.14
74327;BME280;62745;51.060;13.786;2023-06-22T10:00:10;100330.78;;;31.19;41.97
74327;BME280;62745;51.060;13.786;2023-06-22T10:02:38;100334.50;;;31.05;42.01
74327;BME280;62745;51.060;13.786;2023-06-22T10:05:04;100334.69;;;31.00;42.34
74327;BME280;62745;51.060;13.786;2023-06-22T10:07:29;100337.59;;;31.12;41.93
74327;BME280;62745;51.060;13.786;2023-06-22T10:09:54;100326.72;;;31.16;41.58
74327;BME280;62745;51.060;13.786;2023-06-22T10:12:19;100325.97;;;31.54;41.62
74327;BME280;62745;51.060;13.786;2023-06-22T10:14:45;100322.44;;;31.45;41.57
74327;BME280;62745;51.060;13.786;2023-06-22T10:17:10;100312.00;;;30.95;44.04
74327;BME280;62745;51.060;13.786;2023-06-22T10:19:35;100317.84;;;30.84;45.80
74327;BME280;62745;51.060;13.786;2023-06-22T10:22:03;100311.69;;;30.79;45.58
74327;BME280;62745;51.060;13.786;2023-06-22T10:24:29;100310.03;;;30.52;46.05
74327;BME280;62745;51.060;13.786;2023-06-22T10:26:54;100309.66;;;30.10;47.41
74327;BME280;62745;51.060;13.786;2023-06-22T10:29:20;100305.91;;;30.06;47.92
74327;BME280;62745;51.060;13.786;2023-06-22T10:31:45;100307.25;;;30.35;46.35
74327;BME280;62745;51.060;13.786;2023-06-22T10:34:10;100305.81;;;30.54;45.23
74327;BME280;62745;51.060;13.786;2023-06-22T10:36:35;100310.19;;;31.07;43.43
74327;BME280;62745;51.060;13.786;2023-06-22T10:39:01;100296.06;;;31.09;44.35
74327;BME280;62745;51.060;13.786;2023-06-22T10:41:27;100299.94;;;31.25;43.86
74327;BME280;62745;51.060;13.786;2023-06-22T10:43:55;100293.63;;;30.99;43.78
74327;BME280;62745;51.060;13.786;2023-06-22T10:46:20;100287.44;;;31.19;44.40
74327;BME280;62745;51.060;13.786;2023-06-22T10:48:46;100280.72;;;31.37;43.83
74327;BME280;62745;51.060;13.786;2023-06-22T10:51:11;100283.88;;;31.19;43.92
74327;BME280;62745;51.060;13.786;2023-06-22T10:53:36;100286.16;;;31.08;44.39
74327;BME280;62745;51.060;13.786;2023-06-22T10:56:01;100287.16;;;30.95;43.47
74327;BME280;62745;51.060;13.786;2023-06-22T10:58:27;100287.44;;;31.28;43.16
74327;BME280;62745;51.060;13.786;2023-06-22T11:00:52;100273.75;;;31.78;42.31
74327;BME280;62745;51.060;13.786;2023-06-22T11:03:17;100279.13;;;31.75;42.23
74327;BME280;62745;51.060;13.786;2023-06-22T11:05:42;100274.00;;;31.94;41.87
74327;BME280;62745;51.060;13.786;2023-06-22T11:08:08;100277.44;;;32.12;41.63
74327;BME280;62745;51.060;13.786;2023-06-22T11:10:33;100278.59;;;32.11;41.69
74327;BME280;62745;51.060;13.786;2023-06-22T11:12:58;100274.59;;;32.29;41.04
74327;BME280;62745;51.060;13.786;2023-06-22T11:15:24;100266.06;;;32.34;40.97
74327;BME280;62745;51.060;13.786;2023-06-22T11:17:50;100267.75;;;32.26;42.01
74327;BME280;62745;51.060;13.786;2023-06-22T11:20:15;100273.66;;;32.58;41.90
74327;BME280;62745;51.060;13.786;2023-06-22T11:22:41;100267.16;;;32.75;41.42
74327;BME280;62745;51.060;13.786;2023-06-22T11:25:07;100265.19;;;32.63;41.12
74327;BME280;62745;51.060;13.786;2023-06-22T11:27:32;100263.44;;;32.91;41.52
74327;BME280;62745;51.060;13.786;2023-06-22T11:29:57;100262.53;;;32.87;40.54
74327;BME280;62745;51.060;13.786;2023-06-22T11:32:23;100252.56;;;33.19;39.38
74327;BME280;62745;51.060;13.786;2023-06-22T11:34:48;100244.06;;;33.73;38.78
74327;BME280;62745;51.060;13.786;2023-06-22T11:37:13;100238.53;;;33.49;38.47
74327;BME280;62745;51.060;13.786;2023-06-22T11:39:39;100239.84;;;33.06;39.58
74327;BME280;62745;51.060;13.786;2023-06-22T11:42:04;100237.06;;;32.19;40.91
74327;BME280;62745;51.060;13.786;2023-06-22T11:44:29;100238.06;;;32.56;40.73
74327;BME280;62745;51.060;13.786;2023-06-22T11:46:55;100235.91;;;33.07;39.78
74327;BME280;62745;51.060;13.786;2023-06-22T11:49:20;100217.13;;;33.01;39.97
74327;BME280;62745;51.060;13.786;2023-06-22T11:51:45;100220.94;;;32.96;39.68
74327;BME280;62745;51.060;13.786;2023-06-22T11:54:10;100217.34;;;33.08;38.94
74327;BME280;62745;51.060;13.786;2023-06-22T11:56:36;100217.88;;;33.46;38.96
74327;BME280;62745;51.060;13.786;2023-06-22T11:59:01;100219.34;;;33.93;38.41
74327;BME280;62745;51.060;13.786;2023-06-22T12:01:27;100215.22;;;33.87;37.98
74327;BME280;62745;51.060;13.786;2023-06-22T12:03:52;100215.47;;;33.33;39.14
74327;BME280;62745;51.060;13.786;2023-06-22T12:06:17;100203.69;;;33.48;38.02
74327;BME280;62745;51.060;13.786;2023-06-22T12:08:43;100198.34;;;33.55;38.91
74327;BME280;62745;51.060;13.786;2023-06-22T12:11:08;100191.50;;;34.01;37.91
74327;BME280;62745;51.060;13.786;2023-06-22T12:13:33;100195.84;;;33.50;38.39
74327;BME280;62745;51.060;13.786;2023-06-22T12:15:58;100192.56;;;33.11;39.42
74327;BME280;62745;51.060;13.786;2023-06-22T12:18:24;100190.84;;;33.56;38.39
74327;BME280;62745;51.060;13.786;2023-06-22T12:20:49;100189.69;;;34.21;37.68
74327;BME280;62745;51.060;13.786;2023-06-22T12:23:15;100180.78;;;34.56;37.31
74327;BME280;62745;51.060;13.786;2023-06-22T12:25:40;100184.31;;;34.41;35.88
74327;BME280;62745;51.060;13.786;2023-06-22T12:28:05;100176.59;;;34.62;36.73
74327;BME280;62745;51.060;13.786;2023-06-22T12:30:32;100176.38;;;34.98;35.58
74327;BME280;62745;51.060;13.786;2023-06-22T12:32:57;100169.94;;;34.94;35.18
74327;BME280;62745;51.060;13.786;2023-06-22T12:35:23;100174.88;;;34.01;37.85
74327;BME280;62745;51.060;13.786;2023-06-22T12:37:48;100164.84;;;33.72;37.31
74327;BME280;62745;51.060;13.786;2023-06-22T12:40:13;100163.19;;;34.36;36.86